• Join FlightAware (Why Join?)
  • Login
  • US Flag 
Gobble Gobble! 
02:19AM EST


 

Airport Tracker/Info


-or-


 

Live Flight TrackerFlight Track Log ✈ FDX1347 ✈ 28-Jun-2013 ✈ KALB - KMEM

Flight Track Log - Related Links

Times and Time Zones

All times are in EDT time to prevent confusion due to time zone crossing. See the FDX1347 flight status page for this flight to view local times or setup timezone preferences in your user account.

Time Position Orientation Groundspeed Altitude Reporting Facility
EDT Latitude Longitude Course Direction KTS MPH feet Rate Location/Type
10:08PM 42.7256 -73.8108 259° West 165 190 1,400  Level Boston Center
10:09PM 42.7186 -73.8617 259° West 211 243 3,300 2,520 Climbing Boston Center
10:10PM 42.7342 -73.9664 281° West 261 300 6,500 2,820 Climbing Boston Center
10:11PM 42.7119 -74.0592 252° West 255 293 9,600 2,580 Climbing Boston Center
10:12PM 42.6542 -74.1536 230° Southwest 281 323 11,700 2,160 Climbing Boston Center
10:18PM 42.2740 -74.7950 230° Southwest 389 448 25,000 1,980 Climbing FlightAware
10:19PM 42.2370 -74.8580 232° Southwest 389 448 25,000 1,620 Level FlightAware
10:20PM 42.1760 -74.9700 234° Southwest 399 459 27,500 2,220 Climbing FlightAware
10:21PM 42.1160 -75.1230 242° Southwest 408 470 29,200 1,860 Climbing FlightAware
10:21PM 42.0790 -75.2100 240° Southwest 399 459 30,700 1,980 Climbing FlightAware
10:22PM 42.0480 -75.2829 240° Southwest 395 455 31,700 1,800 Climbing FlightAware ADS-B
10:22PM 42.0207 -75.3491 241° Southwest 393 452 32,600 1,680 Climbing FlightAware ADS-B
10:23PM 41.9893 -75.4280 242° Southwest 389 448 33,600 1,380 Climbing FlightAware ADS-B
10:24PM 41.9636 -75.4922 242° Southwest 393 452 34,200 1,320 Climbing FlightAware ADS-B
10:24PM 41.9368 -75.5585 241° Southwest 391 450 35,000 1,320 Climbing FlightAware ADS-B
10:25PM 41.8972 -75.6583 242° Southwest 394 453 35,900 1,080 Climbing FlightAware ADS-B
10:26PM 41.8577 -75.7559 242° Southwest 398 458 36,700 1,140 Climbing FlightAware ADS-B
10:26PM 41.8288 -75.8271 241° Southwest 394 453 37,400 1,200 Climbing FlightAware ADS-B
10:27PM 41.8009 -75.8953 241° Southwest 392 451 38,000 1,020 Climbing FlightAware ADS-B
10:27PM 41.7737 -75.9614 241° Southwest 392 451 38,500 840 Climbing FlightAware ADS-B
10:28PM 41.7468 -76.0276 241° Southwest 394 453 38,900 600 Climbing FlightAware ADS-B
10:28PM 41.7172 -76.1004 241° Southwest 399 459 39,200 540 Climbing FlightAware ADS-B
10:29PM 41.6895 -76.1680 241° Southwest 403 464 39,500 780 Climbing FlightAware ADS-B
10:29PM 41.6626 -76.2335 241° Southwest 404 465 40,000 420 Climbing FlightAware ADS-B
10:30PM 41.6314 -76.3074 241° Southwest 399 459 40,000  Level FlightAware ADS-B
10:30PM 41.6046 -76.3720 241° Southwest 399 459 40,000  Level FlightAware ADS-B
10:31PM 41.5775 -76.4387 242° Southwest 399 459 40,000  Level FlightAware ADS-B
10:31PM 41.5504 -76.5036 241° Southwest 402 463 40,000  Level FlightAware ADS-B
10:32PM 41.5232 -76.5688 241° Southwest 405 466 40,000  Level FlightAware ADS-B
10:32PM 41.4945 -76.6386 241° Southwest 406 467 40,000  Level FlightAware ADS-B
10:33PM 41.4657 -76.7062 240° Southwest 405 466 40,000  Level FlightAware ADS-B
10:33PM 41.4330 -76.7830 240° Southwest 406 467 40,000  Level FlightAware
10:34PM 41.4235 -76.8067 242° Southwest 406 467 40,000  Level FlightAware ADS-B
10:34PM 41.3957 -76.8744 241° Southwest 406 467 40,000  Level FlightAware ADS-B
10:35PM 41.3679 -76.9398 240° Southwest 406 467 40,000  Level FlightAware ADS-B
10:35PM 41.3400 -77.0050 240° Southwest 406 467 40,000  Level FlightAware ADS-B
10:36PM 41.3125 -77.0702 241° Southwest 405 466 40,000  Level FlightAware ADS-B
10:36PM 41.2840 -77.1374 241° Southwest 405 466 40,000  Level FlightAware ADS-B
10:37PM 41.2536 -77.2086 240° Southwest 404 465 40,000  Level FlightAware ADS-B
10:38PM 41.2077 -77.3167 241° Southwest 404 465 40,000  Level FlightAware ADS-B
10:38PM 41.1670 -77.4140 241° Southwest 404 465 40,000  Level FlightAware
10:39PM 41.1310 -77.4970 240° Southwest 402 463 40,000  Level FlightAware
10:40PM 41.0920 -77.5850 240° Southwest 401 461 40,000  Level FlightAware
10:40PM 41.0533 -77.6765 241° Southwest 400 460 40,000  Level FlightAware ADS-B
10:41PM 41.0150 -77.7660 240° Southwest 399 459 40,000  Level FlightAware
10:42PM 40.9809 -77.8444 240° Southwest 400 460 40,000  Level FlightAware ADS-B
10:43PM 40.9291 -77.9630 240° Southwest 401 461 40,000  Level FlightAware ADS-B
10:43PM 40.8910 -78.0420 237° Southwest 400 460 40,000  Level FlightAware
10:44PM 40.8510 -78.1210 236° Southwest 401 461 40,000  Level FlightAware
10:49PM 40.5710 -78.6700 236° Southwest 407 468 40,000  Level FlightAware
10:49PM 40.5070 -78.7960 236° Southwest 407 468 40,000  Level FlightAware
10:50PM 40.4660 -78.8750 236° Southwest 406 467 40,000  Level FlightAware
10:51PM 40.4180 -78.9690 236° Southwest 403 464 40,000  Level FlightAware
10:51PM 40.3750 -79.0520 236° Southwest 402 463 40,000  Level FlightAware
10:52PM 40.3330 -79.1320 235° Southwest 403 464 40,000  Level FlightAware
10:53PM 40.2850 -79.2250 236° Southwest 401 461 40,000  Level FlightAware
10:54PM 40.2430 -79.3030 235° Southwest 402 463 40,000  Level FlightAware
10:54PM 40.1970 -79.3910 236° Southwest 402 463 40,000  Level FlightAware
10:55PM 40.1590 -79.4660 236° Southwest 403 464 40,000  Level FlightAware
10:56PM 40.0810 -79.6120 235° Southwest 405 466 40,000  Level FlightAware
10:57PM 40.0200 -79.7270 235° Southwest 408 470 40,000  Level FlightAware
10:58PM 39.9630 -79.8350 235° Southwest 407 468 40,000  Level FlightAware
10:59PM 39.9210 -79.9130 235° Southwest 407 468 40,000  Level FlightAware
10:59PM 39.8700 -80.0100 236° Southwest 408 470 40,000  Level FlightAware
11:04PM 39.5940 -80.5190 235° Southwest 410 472 40,000  Level FlightAware
11:04PM 39.5420 -80.6130 234° Southwest 408 470 40,000  Level FlightAware
11:05PM 39.4940 -80.7020 235° Southwest 410 472 40,000  Level FlightAware
11:06PM 39.4480 -80.7850 234° Southwest 408 470 40,000  Level FlightAware
11:07PM 39.4020 -80.8710 235° Southwest 408 470 40,000  Level FlightAware
11:07PM 39.3590 -80.9470 234° Southwest 408 470 40,000  Level FlightAware
11:08PM 39.3090 -81.0380 235° Southwest 407 468 40,000  Level FlightAware
11:09PM 39.2630 -81.1210 234° Southwest 405 466 40,000  Level FlightAware
11:09PM 39.2150 -81.2070 234° Southwest 405 466 40,000  Level FlightAware
11:11PM 39.1410 -81.3400 234° Southwest 402 463 40,000  Level FlightAware
11:11PM 39.0820 -81.4470 235° Southwest 404 465 40,000  Level FlightAware
11:12PM 39.0380 -81.5250 234° Southwest 401 461 40,000  Level FlightAware
11:13PM 38.9890 -81.6100 233° Southwest 399 459 40,000  Level FlightAware
11:14PM 38.9440 -81.6900 234° Southwest 399 459 40,000  Level FlightAware
11:14PM 38.8990 -81.7710 234° Southwest 397 457 40,000  Level FlightAware
11:15PM 38.8550 -81.8470 233° Southwest 395 455 40,000  Level FlightAware
11:16PM 38.8120 -81.9240 234° Southwest 395 455 40,000  Level FlightAware
11:16PM 38.7630 -82.0110 234° Southwest 393 452 40,000  Level FlightAware
11:17PM 38.7190 -82.0920 235° Southwest 393 452 40,000  Level FlightAware
11:18PM 38.6780 -82.1720 237° Southwest 392 451 40,000  Level FlightAware
11:19PM 38.6320 -82.2580 236° Southwest 392 451 40,000  Level FlightAware
11:19PM 38.5930 -82.3330 236° Southwest 392 451 40,000  Level FlightAware
11:20PM 38.5470 -82.4200 236° Southwest 393 452 40,000  Level FlightAware
11:20PM 38.5172 -82.4754 236° Southwest 393 452 40,000  Level FlightAware ADS-B
11:21PM 38.4620 -82.5790 236° Southwest 393 452 40,000  Level FlightAware
11:22PM 38.4210 -82.6560 236° Southwest 393 452 40,000  Level FlightAware
11:23PM 38.3750 -82.7440 236° Southwest 391 450 40,000  Level FlightAware
11:23PM 38.3350 -82.8180 235° Southwest 390 449 40,000  Level FlightAware
11:24PM 38.2890 -82.9030 235° Southwest 389 448 40,000  Level FlightAware
11:25PM 38.2330 -83.0070 236° Southwest 389 448 40,000  Level FlightAware
11:26PM 38.1970 -83.0730 235° Southwest 389 448 40,000  Level FlightAware
11:26PM 38.1490 -83.1640 236° Southwest 387 445 40,000  Level FlightAware
11:27PM 38.1070 -83.2410 235° Southwest 388 447 40,000  Level FlightAware
11:28PM 38.0660 -83.3160 235° Southwest 388 447 40,000  Level FlightAware
11:28PM 38.0557 -83.3343 234° Southwest 388 447 40,000  Level FlightAware ADS-B
11:29PM 38.0176 -83.4038 235° Southwest 390 449 40,000  Level FlightAware ADS-B
11:32PM 37.8191 -83.7662 235° Southwest 392 451 40,000  Level FlightAware ADS-B
11:32PM 37.7859 -83.8262 235° Southwest 391 450 40,000  Level FlightAware ADS-B
11:34PM 37.7050 -83.9720 235° Southwest 391 450 40,000  Level FlightAware
11:34PM 37.6820 -84.0140 235° Southwest 391 450 40,000  Level FlightAware
11:35PM 37.6330 -84.1010 235° Southwest 391 450 40,000  Level FlightAware
11:35PM 37.5870 -84.1830 235° Southwest 392 451 40,000  Level FlightAware
11:36PM 37.5727 -84.2094 236° Southwest 392 451 40,000  Level FlightAware ADS-B
11:36PM 37.5414 -84.2654 235° Southwest 392 451 40,000  Level FlightAware ADS-B
11:37PM 37.5060 -84.3290 235° Southwest 393 452 40,000  Level FlightAware ADS-B
11:37PM 37.4740 -84.3849 234° Southwest 393 452 40,000  Level FlightAware ADS-B
11:38PM 37.4411 -84.4448 235° Southwest 394 453 40,000  Level FlightAware ADS-B
11:39PM 37.3960 -84.5235 234° Southwest 395 455 40,000  Level FlightAware ADS-B
11:39PM 37.3598 -84.5872 234° Southwest 396 456 40,000  Level FlightAware ADS-B
11:40PM 37.3244 -84.6509 235° Southwest 395 455 40,000  Level FlightAware ADS-B
11:41PM 37.2608 -84.7634 235° Southwest 396 456 40,000  Level FlightAware ADS-B
11:41PM 37.2200 -84.8330 234° Southwest 402 463 40,000  Level FlightAware
11:42PM 37.1818 -84.9017 235° Southwest 404 465 40,000  Level FlightAware ADS-B
11:42PM 37.1458 -84.9646 234° Southwest 405 466 40,000  Level FlightAware ADS-B
11:43PM 37.1114 -85.0238 234° Southwest 406 467 40,000  Level FlightAware ADS-B
11:43PM 37.0762 -85.0867 235° Southwest 405 466 40,000  Level FlightAware ADS-B
11:44PM 37.0421 -85.1458 234° Southwest 405 466 40,000  Level FlightAware ADS-B
11:45PM 37.0041 -85.2104 234° Southwest 405 466 40,000  Level FlightAware ADS-B
11:45PM 36.9708 -85.2695 235° Southwest 406 467 40,000  Level FlightAware ADS-B
11:46PM 36.8970 -85.3970 234° Southwest 405 466 40,000  Level FlightAware
11:47PM 36.8570 -85.4660 234° Southwest 408 470 40,000  Level FlightAware
11:48PM 36.8010 -85.5610 234° Southwest 410 472 40,000  Level FlightAware
11:48PM 36.7560 -85.6400 235° Southwest 410 472 40,000  Level FlightAware
11:48PM 36.7437 -85.6609 234° Southwest 410 472 40,000  Level FlightAware ADS-B
11:49PM 36.7081 -85.7219 234° Southwest 409 471 40,000  Level FlightAware ADS-B
11:50PM 36.6745 -85.7791 234° Southwest 409 471 40,000  Level FlightAware ADS-B
11:50PM 36.6406 -85.8362 234° Southwest 409 471 40,000  Level FlightAware ADS-B
11:51PM 36.6064 -85.8952 234° Southwest 409 471 40,000  Level FlightAware ADS-B
11:51PM 36.5720 -85.9523 233° Southwest 410 472 40,000  Level FlightAware ADS-B
11:52PM 36.5373 -86.0113 234° Southwest 411 473 40,000  Level FlightAware ADS-B
11:52PM 36.5035 -86.0684 234° Southwest 411 473 40,000  Level FlightAware ADS-B
11:53PM 36.4260 -86.1990 234° Southwest 409 471 40,000  Level FlightAware
11:54PM 36.3770 -86.2820 234° Southwest 407 468 40,000  Level FlightAware
11:55PM 36.3290 -86.3640 234° Southwest 409 471 40,000  Level FlightAware
11:55PM 36.2830 -86.4410 233° Southwest 408 470 40,000  Level FlightAware
11:56PM 36.2389 -86.5139 233° Southwest 408 470 40,000  Level FlightAware ADS-B
11:57PM 36.2043 -86.5720 234° Southwest 407 468 40,000  Level FlightAware ADS-B
11:57PM 36.1706 -86.6279 233° Southwest 406 467 40,000  Level FlightAware ADS-B
11:58PM 36.1197 -86.7374 240° Southwest 401 461 40,000  Level FlightAware ADS-B
11:59PM 36.0820 -86.8570 249° West 399 459 40,000  Level FlightAware
11:59PM 36.0684 -86.8989 248° West 401 461 40,000 -840 Level FlightAware ADS-B
12:00AM 36.0476 -86.9646 249° West 401 461 39,300 -1,200 Descending FlightAware ADS-B
12:00AM 36.0266 -87.0310 249° West 403 464 38,800 -1,140 Descending FlightAware ADS-B
12:01AM 36.0052 -87.0973 248° West 404 465 38,200 -1,020 Descending FlightAware ADS-B
12:01AM 35.9842 -87.1637 249° West 403 464 37,800 -900 Descending FlightAware ADS-B
12:02AM 35.9634 -87.2277 248° West 404 465 37,300 -1,020 Descending FlightAware ADS-B
12:02AM 35.9426 -87.2921 248° West 406 467 36,800 -1,020 Descending FlightAware ADS-B
12:03AM 35.9120 -87.3870 248° West 409 471 36,100 -1,080 Descending FlightAware
12:04AM 35.8830 -87.4770 248° West 417 480 35,300 -780 Descending FlightAware
12:04AM 35.8490 -87.5800 248° West 428 493 35,000 -240 Descending FlightAware
12:05AM 35.8190 -87.6730 248° West 429 494 35,000  Level FlightAware
12:06AM 35.7910 -87.7570 248° West 431 496 35,000  Level FlightAware
12:07AM 35.7470 -87.8920 248° West 433 498 35,000  Level FlightAware
12:08AM 35.7050 -88.0200 248° West 431 496 35,000  Level FlightAware
12:08AM 35.6830 -88.0880 248° West 431 496 35,000  Level FlightAware
12:09AM 35.6530 -88.1770 247° West 431 496 35,000  Level FlightAware
12:10AM 35.6290 -88.2500 248° West 431 496 35,000  Level FlightAware
12:11AM 35.5990 -88.3430 248° West 431 496 35,000  Level FlightAware
12:11AM 35.5770 -88.4110 248° West 431 496 35,000  Level FlightAware
12:12AM 35.5460 -88.5030 248° West 431 496 35,000  Level FlightAware
12:12AM 35.5250 -88.5690 249° West 431 496 35,000  Level FlightAware
12:13AM 35.4940 -88.6620 248° West 431 496 35,000  Level FlightAware
12:14AM 35.4700 -88.7350 248° West 431 496 35,000  Level FlightAware
12:16AM 35.3850 -88.9910 248° West 431 496 35,000 -7,680 Level FlightAware
12:17AM 35.0731 -89.0175 248° West 369 425 10,400 -12,660 Descending Memphis Center
12:18AM 35.0322 -89.0992 239° Southwest 323 372 9,700 -1,080 Descending Memphis Center
12:19AM 35.0353 -89.1931 272° West 266 306 8,300 -1,440 Descending Memphis Center
12:20AM 35.0403 -89.2817 274° West 266 306 6,900 -900 Descending Memphis Center
12:21AM 35.0431 -89.3706 272° West 266 306 6,500 -480 Descending Memphis Center
12:22AM 35.0458 -89.4517 272° West 265 305 6,000 -420 Descending Memphis Center
12:23AM 35.0464 -89.5303 271° West 240 276 5,700 -660 Descending Memphis Center
12:24AM 35.0489 -89.6036 272° West 223 257 4,700 -900 Descending Memphis Center
12:25AM 35.0514 -89.6747 272° West 223 257 4,000 -780 Descending Memphis Center
12:26AM 35.0539 -89.7406 273° West 200 230 3,200 -900 Descending Memphis Center
12:27AM 35.0561 -89.7989 273° West 184 212 2,300 -660 Descending Memphis Center
12:28AM 35.0564 -89.8572 270° West 178 205 1,900 -540 Descending Memphis Center
12:29AM 35.0586 -89.9056 273° West 160 184 1,300 -600 Descending Memphis Center
12:30AM 35.0589 -89.9411 271° West 139 160 700 -600 Descending Memphis Center
12:32AM 35.0333 -89.9667 270° West  Level FlightAware Approximate
12:39AM 35.0424 -89.9767 270° West  Level Estimated
12:40AM 35.0424 -89.9767 270° West  Level Estimated
12:41AM 35.0424 -89.9767 270° West  Level Estimated
12:42AM 35.0424 -89.9767 270° West  Level Estimated
12:43AM 35.0424 -89.9767 270° West  Level Estimated
12:44AM 35.0424 -89.9767 270° West  Level Estimated
12:45AM 35.0424 -89.9767 270° West  Level Estimated